Time;durP1;ratioP1;P1;durP2;ratioP2;P2;SDS_P1;SDS_P2;PMS_P1;PMS_P2;Temp;Humidity;BMP_temperature;BMP_pressure;BME280_temperature;BME280_humidity;BME280_pressure;Samples;Min_cycle;Max_cycle;Signal;HPM_P1;HPM_P2
2022/06/11 00:00:40;;;;;;;15.80;11.00;;;19.90;71.60;;;;;;9178778;19;20025;-68
2022/06/11 00:03:45;;;;;;;16.13;10.65;;;19.90;71.70;;;;;;9179148;19;20030;-68
2022/06/11 00:06:54;;;;;;;16.63;10.80;;;19.90;71.70;;;;;;9177636;19;20018;-68
2022/06/11 00:09:59;;;;;;;18.05;10.27;;;19.80;71.80;;;;;;9178612;19;20015;-69
2022/06/11 00:13:05;;;;;;;18.58;11.82;;;19.80;71.90;;;;;;9180383;19;20017;-68
2022/06/11 00:16:15;;;;;;;14.68;11.30;;;19.80;71.90;;;;;;9180014;19;20018;-70
2022/06/11 00:19:22;;;;;;;20.65;11.68;;;19.70;72.00;;;;;;9178421;19;20025;-69
2022/06/11 00:22:27;;;;;;;15.95;11.07;;;19.70;72.00;;;;;;9177686;19;20018;-68
2022/06/11 00:25:34;;;;;;;22.73;12.23;;;19.70;72.10;;;;;;9180153;19;20375;-69
2022/06/11 00:28:40;;;;;;;22.25;11.82;;;19.70;72.20;;;;;;9178840;19;20023;-68
2022/06/11 00:31:49;;;;;;;22.55;11.10;;;19.70;72.30;;;;;;9178806;19;20023;-68
2022/06/11 00:34:58;;;;;;;21.17;10.77;;;19.60;72.30;;;;;;9180478;19;20140;-69
2022/06/11 00:38:04;;;;;;;17.35;10.57;;;19.60;73.00;;;;;;9172248;19;20353;-69
2022/06/11 00:41:10;;;;;;;16.70;10.52;;;19.60;72.40;;;;;;9176982;19;20033;-69
2022/06/11 00:44:16;;;;;;;20.85;10.10;;;19.60;72.50;;;;;;9173532;19;20033;-69
2022/06/11 00:47:26;;;;;;;16.73;11.07;;;19.60;72.60;;;;;;9173645;19;20015;-69
2022/06/11 00:50:37;;;;;;;14.18;9.07;;;19.60;72.70;;;;;;9172468;19;20013;-69
2022/06/11 00:53:47;;;;;;;16.25;9.65;;;19.60;72.80;;;;;;9174236;19;20361;-68
2022/06/11 00:56:56;;;;;;;16.25;9.25;;;19.50;73.40;;;;;;9173542;19;20019;-68
2022/06/11 01:00:15;;;;;;;20.50;8.85;;;19.50;72.80;;;;;;9172770;19;20078;-68
2022/06/11 01:03:28;;;;;;;13.32;8.52;;;19.60;72.90;;;;;;9175264;19;20053;-67
2022/06/11 01:06:39;;;;;;;21.80;9.73;;;19.50;73.00;;;;;;9174307;19;20022;-68
2022/06/11 01:09:57;;;;;;;17.27;8.23;;;19.50;73.00;;;;;;9173893;19;20025;-68
2022/06/11 01:13:10;;;;;;;19.67;8.63;;;19.50;73.00;;;;;;9173886;19;20010;-67
2022/06/11 01:16:21;;;;;;;16.02;8.40;;;19.50;73.00;;;;;;9167919;19;20379;-66
2022/06/11 01:20:00;;;;;;;13.88;7.60;;;19.50;72.90;;;;;;9174530;19;20026;-68
2022/06/11 01:23:34;;;;;;;13.93;7.50;;;19.50;73.10;;;;;;9180021;19;20022;-68
2022/06/11 01:27:09;;;;;;;18.08;8.02;;;19.50;73.10;;;;;;9184947;19;20357;-68
2022/06/11 01:30:22;;;;;;;17.83;7.38;;;19.50;73.10;;;;;;9184298;19;20015;-68
2022/06/11 01:33:39;;;;;;;12.15;7.30;;;19.40;72.90;;;;;;9180613;19;20010;-68
2022/06/11 01:36:47;;;;;;;15.82;7.00;;;19.40;73.00;;;;;;9180813;19;20022;-68
2022/06/11 01:39:57;;;;;;;14.65;7.65;;;19.40;72.90;;;;;;9179636;19;20025;-70
2022/06/11 01:43:13;;;;;;;11.45;6.88;;;19.30;73.00;;;;;;9182620;19;20381;-69
2022/06/11 01:46:24;;;;;;;12.73;6.60;;;19.30;73.00;;;;;;9180601;19;20014;-68
2022/06/11 01:49:41;;;;;;;11.48;7.97;;;19.30;73.10;;;;;;9181460;19;20470;-69
2022/06/11 01:53:07;;;;;;;12.77;7.03;;;19.30;73.20;;;;;;9180028;19;20021;-68
2022/06/11 01:56:23;;;;;;;15.18;7.53;;;19.20;73.10;;;;;;9178199;19;20070;-68
2022/06/11 01:59:44;;;;;;;16.73;8.02;;;19.20;73.20;;;;;;9176731;19;20356;-69
2022/06/11 02:03:16;;;;;;;17.65;7.28;;;19.10;73.20;;;;;;9180655;19;20701;-67
2022/06/11 02:06:34;;;;;;;14.90;7.07;;;19.10;73.30;;;;;;9178243;19;20376;-68
2022/06/11 02:09:51;;;;;;;16.88;6.78;;;19.00;73.30;;;;;;9180856;19;20860;-68
2022/06/11 02:13:01;;;;;;;12.73;6.65;;;19.00;73.40;;;;;;9181833;19;20083;-69
2022/06/11 02:16:12;;;;;;;11.02;5.88;;;18.90;73.40;;;;;;9179928;19;20011;-69
2022/06/11 02:19:29;;;;;;;9.95;4.68;;;18.90;73.50;;;;;;9175849;19;20035;-68
2022/06/11 02:22:41;;;;;;;12.50;4.65;;;18.90;73.60;;;;;;9178114;19;20018;-67
2022/06/11 02:25:50;;;;;;;9.15;4.03;;;18.90;73.50;;;;;;9177859;19;20017;-68
2022/06/11 02:28:57;;;;;;;8.93;3.90;;;18.80;73.50;;;;;;9179138;19;20015;-67
2022/06/11 02:32:07;;;;;;;6.20;3.35;;;18.80;73.50;;;;;;9180282;19;20018;-68
2022/06/11 02:35:25;;;;;;;7.22;3.55;;;18.80;73.60;;;;;;9176367;19;20479;-67
2022/06/11 02:38:31;;;;;;;6.28;3.00;;;18.70;73.60;;;;;;9176851;19;20468;-69
2022/06/11 02:41:37;;;;;;;6.60;2.85;;;18.70;73.50;;;;;;9178137;19;20006;-69
2022/06/11 02:44:43;;;;;;;3.92;2.53;;;18.60;73.50;;;;;;9177417;19;20014;-68
2022/06/11 02:47:51;;;;;;;5.90;2.50;;;18.60;73.40;;;;;;9177756;19;20030;-68
2022/06/11 02:50:59;;;;;;;6.13;2.92;;;18.60;73.50;;;;;;9175955;19;20011;-67
2022/06/11 02:54:05;;;;;;;4.05;2.08;;;18.50;73.50;;;;;;9175717;19;20014;-69
2022/06/11 02:57:11;;;;;;;6.07;2.53;;;18.50;73.50;;;;;;9177772;19;20022;-68
2022/06/11 03:00:19;;;;;;;5.75;2.35;;;18.50;73.60;;;;;;9176600;19;20022;-68
2022/06/11 03:03:24;;;;;;;7.68;2.72;;;18.50;73.60;;;;;;9178343;19;20362;-69
2022/06/11 03:06:32;;;;;;;5.20;2.65;;;18.40;73.50;;;;;;9177948;19;20517;-68
2022/06/11 03:09:40;;;;;;;5.78;2.22;;;18.40;73.60;;;;;;9180439;19;20014;-69
2022/06/11 03:12:45;;;;;;;6.22;2.78;;;18.40;73.60;;;;;;9177285;19;20698;-68
2022/06/11 03:15:50;;;;;;;6.20;2.53;;;18.40;73.60;;;;;;9179339;19;20014;-68
2022/06/11 03:18:55;;;;;;;13.77;2.97;;;18.30;73.60;;;;;;9173065;19;20048;-67
2022/06/11 03:22:03;;;;;;;6.28;2.45;;;18.30;73.50;;;;;;9176135;19;20019;-68
2022/06/11 03:25:09;;;;;;;5.85;2.50;;;18.20;73.60;;;;;;9175308;19;20469;-68
2022/06/11 03:28:18;;;;;;;7.13;3.00;;;18.20;73.50;;;;;;9176276;19;20050;-68
2022/06/11 03:31:24;;;;;;;5.45;3.53;;;18.10;73.60;;;;;;9174117;19;20014;-66
2022/06/11 03:34:29;;;;;;;6.40;3.40;;;18.10;73.60;;;;;;9175514;19;20491;-67
2022/06/11 03:37:37;;;;;;;12.20;3.38;;;18.00;73.50;;;;;;9175144;19;20030;-67
2022/06/11 03:40:42;;;;;;;8.20;3.42;;;18.00;73.70;;;;;;9175033;19;20026;-68
2022/06/11 03:43:48;;;;;;;8.75;3.85;;;17.90;73.70;;;;;;9174990;19;20373;-68
2022/06/11 03:46:54;;;;;;;5.43;3.25;;;17.90;73.80;;;;;;9172837;19;20452;-67
2022/06/11 03:49:59;;;;;;;8.65;3.88;;;17.90;73.90;;;;;;9176463;19;20018;-68
2022/06/11 03:53:08;;;;;;;8.50;3.80;;;17.80;74.00;;;;;;9174221;19;20018;-68
2022/06/11 03:56:15;;;;;;;8.15;4.03;;;17.80;74.10;;;;;;9173895;19;20480;-67
2022/06/11 03:59:21;;;;;;;11.40;4.28;;;17.80;74.00;;;;;;9175469;19;20022;-68
2022/06/11 04:02:26;;;;;;;9.57;4.38;;;17.70;74.10;;;;;;9176017;19;20486;-68
2022/06/11 04:05:31;;;;;;;9.35;4.07;;;17.70;74.10;;;;;;9173166;19;20018;-68
2022/06/11 04:08:39;;;;;;;8.63;3.90;;;17.70;74.30;;;;;;9173742;19;20014;-67
2022/06/11 04:11:45;;;;;;;12.95;4.18;;;17.60;74.20;;;;;;9175499;19;20460;-68
2022/06/11 04:14:51;;;;;;;13.18;4.57;;;17.60;74.20;;;;;;9174477;19;20029;-67
2022/06/11 04:17:57;;;;;;;8.13;3.65;;;17.60;74.40;;;;;;9169282;19;20022;-67
2022/06/11 04:21:03;;;;;;;7.97;3.00;;;17.50;74.40;;;;;;9174611;19;20026;-68
2022/06/11 04:24:11;;;;;;;11.77;3.92;;;17.50;74.30;;;;;;9173660;19;20488;-68
2022/06/11 04:27:18;;;;;;;5.78;3.70;;;17.50;74.40;;;;;;9172642;19;20030;-67
2022/06/11 04:30:26;;;;;;;11.38;3.35;;;17.50;74.40;;;;;;9174004;19;20348;-68
2022/06/11 04:33:31;;;;;;;17.55;3.60;;;17.50;74.40;;;;;;9174796;19;20030;-67
2022/06/11 04:36:37;;;;;;;8.90;3.20;;;17.40;74.50;;;;;;9175322;19;20010;-66
2022/06/11 04:39:47;;;;;;;5.00;2.92;;;17.40;74.50;;;;;;9174235;19;20483;-67
2022/06/11 04:42:52;;;;;;;7.50;3.20;;;17.40;74.60;;;;;;9174489;19;20353;-68
2022/06/11 04:45:57;;;;;;;11.68;3.15;;;17.40;74.60;;;;;;9181575;19;20019;-68
2022/06/11 04:49:02;;;;;;;18.20;3.33;;;17.40;74.70;;;;;;9180356;19;20015;-68
2022/06/11 04:52:08;;;;;;;8.50;3.00;;;17.40;74.70;;;;;;9175640;19;20007;-68
2022/06/11 04:55:16;;;;;;;4.97;2.40;;;17.40;74.70;;;;;;9177932;19;20006;-67
2022/06/11 04:58:22;;;;;;;11.05;2.67;;;17.40;74.70;;;;;;9182834;19;20828;-67
2022/06/11 05:01:27;;;;;;;12.10;2.60;;;17.30;74.60;;;;;;9188395;19;20015;-68
2022/06/11 05:04:33;;;;;;;8.73;2.55;;;17.40;74.70;;;;;;9188526;19;20018;-68
2022/06/11 05:07:38;;;;;;;7.38;2.65;;;17.30;74.70;;;;;;9180626;19;20010;-68
2022/06/11 05:10:47;;;;;;;14.90;2.67;;;17.40;74.70;;;;;;9182633;19;20023;-67
2022/06/11 05:13:52;;;;;;;9.15;2.40;;;17.40;74.70;;;;;;9182828;19;20018;-67
2022/06/11 05:16:59;;;;;;;19.48;3.30;;;17.40;74.60;;;;;;9176000;19;20014;-67
2022/06/11 05:20:04;;;;;;;11.00;2.53;;;17.40;74.60;;;;;;9180605;19;20044;-67
2022/06/11 05:23:10;;;;;;;10.63;2.13;;;17.40;74.60;;;;;;9181641;19;20026;-67
2022/06/11 05:26:21;;;;;;;10.32;2.50;;;17.40;74.50;;;;;;9181822;19;20476;-68
2022/06/11 05:29:30;;;;;;;11.57;2.80;;;17.40;74.60;;;;;;9181444;19;20893;-66
2022/06/11 05:32:37;;;;;;;11.18;2.60;;;17.40;74.60;;;;;;9182030;19;20030;-67
2022/06/11 05:35:43;;;;;;;13.73;2.65;;;17.50;74.60;;;;;;9182253;19;20077;-68
2022/06/11 05:38:49;;;;;;;12.73;2.10;;;17.50;74.50;;;;;;9184969;19;20025;-68
2022/06/11 05:41:57;;;;;;;9.18;1.75;;;17.60;74.50;;;;;;9185037;19;20868;-67
2022/06/11 05:45:02;;;;;;;10.85;2.35;;;17.70;74.50;;;;;;9185704;19;20491;-68
2022/06/11 05:48:10;;;;;;;12.27;2.60;;;17.70;74.50;;;;;;9185627;19;20492;-68
2022/06/11 05:51:17;;;;;;;12.23;2.78;;;17.90;74.50;;;;;;9185228;19;20014;-67
2022/06/11 05:54:28;;;;;;;12.38;2.47;;;18.00;74.40;;;;;;9187534;19;20020;-68
2022/06/11 05:57:36;;;;;;;15.95;3.55;;;18.10;74.30;;;;;;9185383;19;20018;-67
2022/06/11 06:00:41;;;;;;;15.95;2.78;;;18.30;74.20;;;;;;9183289;19;20456;-68
2022/06/11 06:03:46;;;;;;;17.20;3.00;;;18.50;74.10;;;;;;9184687;19;20018;-67
2022/06/11 06:06:52;;;;;;;14.52;3.00;;;18.60;74.00;;;;;;9185047;19;20499;-68
2022/06/11 06:09:59;;;;;;;18.13;2.90;;;18.80;73.80;;;;;;9187032;19;20018;-68
2022/06/11 06:13:45;;;;;;;15.77;3.00;;;19.00;73.60;;;;;;9188557;19;20015;-68
2022/06/11 06:16:33;;;;;;;11.75;2.95;;;19.20;73.40;;;;;;9182455;19;20014;-68
2022/06/11 06:19:38;;;;;;;10.85;2.50;;;19.30;73.30;;;;;;9185039;19;20014;-68
2022/06/11 06:22:44;;;;;;;11.13;2.75;;;19.50;73.00;;;;;;9185016;19;20019;-68
2022/06/11 06:25:49;;;;;;;18.35;2.75;;;19.60;72.90;;;;;;9183978;19;20014;-68
2022/06/11 06:28:56;;;;;;;11.95;2.55;;;19.80;72.80;;;;;;9187438;19;20014;-68
2022/06/11 06:32:02;;;;;;;7.15;2.53;;;20.00;72.60;;;;;;9186093;19;20028;-68
2022/06/11 06:35:09;;;;;;;13.75;3.38;;;20.20;73.00;;;;;;9184022;19;20491;-69
2022/06/11 06:38:16;;;;;;;10.52;2.47;;;20.40;72.20;;;;;;9186818;19;20018;-68
2022/06/11 06:41:22;;;;;;;15.23;2.92;;;20.50;72.00;;;;;;9184132;19;20052;-68
2022/06/11 06:44:29;;;;;;;12.68;2.47;;;20.70;71.80;;;;;;9184689;19;20015;-68
2022/06/11 06:47:34;;;;;;;12.20;2.80;;;20.80;71.50;;;;;;9184856;19;20026;-68
2022/06/11 06:50:40;;;;;;;15.77;3.35;;;21.00;71.40;;;;;;9187022;19;20010;-68
2022/06/11 06:53:45;;;;;;;14.55;2.97;;;21.20;71.20;;;;;;9184094;19;20023;-68
2022/06/11 06:56:50;;;;;;;13.07;3.20;;;21.30;70.90;;;;;;9186347;19;20449;-67
2022/06/11 06:59:58;;;;;;;18.48;3.15;;;21.50;70.70;;;;;;9183761;19;20015;-67
2022/06/11 07:03:03;;;;;;;18.75;3.40;;;21.60;71.00;;;;;;9185669;19;20007;-68
2022/06/11 07:06:08;;;;;;;13.30;3.13;;;21.80;70.20;;;;;;9186379;19;20011;-68
2022/06/11 07:09:14;;;;;;;21.73;3.60;;;22.00;70.00;;;;;;9181881;19;20483;-67
2022/06/11 07:12:19;;;;;;;12.05;2.85;;;22.10;69.80;;;;;;9183575;19;20014;-68
2022/06/11 07:15:27;;;;;;;18.08;3.17;;;22.20;69.50;;;;;;9183639;19;20483;-68
2022/06/11 07:18:36;;;;;;;22.80;3.55;;;22.40;69.30;;;;;;9178856;19;20015;-67
2022/06/11 07:21:46;;;;;;;16.02;2.72;;;22.50;69.00;;;;;;9181442;19;20025;-68
2022/06/11 07:24:51;;;;;;;20.05;4.18;;;22.70;68.90;;;;;;9182940;19;20015;-68
2022/06/11 07:28:02;;;;;;;16.50;2.80;;;22.90;68.80;;;;;;9184715;19;20014;-69
2022/06/11 07:31:09;;;;;;;19.33;3.17;;;23.00;68.30;;;;;;9185661;19;20337;-68
2022/06/11 07:34:16;;;;;;;17.05;3.53;;;23.20;68.20;;;;;;9185472;19;20018;-69
2022/06/11 07:37:21;;;;;;;13.18;3.22;;;23.30;68.00;;;;;;9182365;19;20011;-69
2022/06/11 07:40:27;;;;;;;18.88;3.25;;;23.50;67.80;;;;;;9182976;19;20480;-69
2022/06/11 07:43:32;;;;;;;20.45;3.33;;;23.60;67.50;;;;;;9182732;19;20014;-68
2022/06/11 07:46:39;;;;;;;19.75;3.63;;;23.70;67.20;;;;;;9183979;19;20011;-68
2022/06/11 07:49:45;;;;;;;13.80;3.17;;;23.90;66.90;;;;;;9184255;19;20021;-68
2022/06/11 07:52:50;;;;;;;13.32;2.88;;;24.00;66.80;;;;;;9181929;19;20010;-68
2022/06/11 07:55:57;;;;;;;17.05;3.33;;;24.10;66.60;;;;;;9182705;19;20010;-68
2022/06/11 07:59:02;;;;;;;13.40;3.00;;;24.20;66.20;;;;;;9183475;19;20476;-68
2022/06/11 08:02:10;;;;;;;18.67;3.35;;;24.30;66.10;;;;;;9182170;19;20460;-68
2022/06/11 08:05:15;;;;;;;29.80;3.67;;;24.50;65.70;;;;;;9182568;19;20026;-64
2022/06/11 08:08:21;;;;;;;17.42;3.63;;;24.60;65.60;;;;;;9179585;19;20021;-65
2022/06/11 08:11:26;;;;;;;20.20;3.97;;;24.70;65.30;;;;;;9181901;19;20010;-66
2022/06/11 08:14:31;;;;;;;16.65;3.03;;;24.80;65.20;;;;;;9182841;19;20022;-65
2022/06/11 08:17:40;;;;;;;13.20;3.30;;;24.90;65.10;;;;;;9179011;19;20084;-66
2022/06/11 08:20:52;;;;;;;16.88;3.38;;;25.10;64.70;;;;;;9181024;19;20018;-66
2022/06/11 08:23:57;;;;;;;20.20;3.40;;;25.20;64.70;;;;;;9180629;19;20516;-65
2022/06/11 08:27:02;;;;;;;16.92;2.97;;;25.40;64.50;;;;;;9180258;19;20092;-73
2022/06/11 08:30:29;;;;;;;18.92;4.45;;;25.50;64.20;;;;;;9182028;19;20021;-71
2022/06/11 08:33:37;;;;;;;19.17;3.22;;;25.60;63.70;;;;;;9183115;19;20623;-72
2022/06/11 08:36:45;;;;;;;18.80;2.97;;;25.80;63.50;;;;;;9180526;19;20022;-70
2022/06/11 08:39:50;;;;;;;21.25;3.53;;;25.80;63.30;;;;;;9181024;19;20015;-70
2022/06/11 08:43:01;;;;;;;14.25;3.67;;;26.00;63.30;;;;;;9179677;19;20524;-69
2022/06/11 08:46:13;;;;;;;15.63;3.58;;;26.00;62.80;;;;;;9179612;19;20030;-69
2022/06/11 08:49:30;;;;;;;16.67;3.50;;;26.10;62.40;;;;;;9182373;19;20015;-71
2022/06/11 08:52:35;;;;;;;12.15;2.85;;;26.20;62.10;;;;;;9181799;19;20025;-71
2022/06/11 08:55:41;;;;;;;18.95;3.45;;;26.30;62.20;;;;;;9179834;19;20011;-69
2022/06/11 08:59:04;;;;;;;16.60;3.08;;;26.30;61.90;;;;;;9180733;19;20034;-70
2022/06/11 09:02:27;;;;;;;15.60;2.92;;;26.40;61.30;;;;;;9179726;19;20018;-71
2022/06/11 09:05:51;;;;;;;21.38;4.43;;;26.40;61.20;;;;;;9181595;19;20472;-70
2022/06/11 09:09:06;;;;;;;21.17;3.88;;;26.60;61.00;;;;;;9177861;19;20018;-70
2022/06/11 09:12:29;;;;;;;15.85;3.50;;;26.60;60.90;;;;;;9179538;19;20010;-70
2022/06/11 09:15:45;;;;;;;19.52;3.17;;;26.70;60.80;;;;;;9179331;19;20025;-71
2022/06/11 09:19:09;;;;;;;19.75;3.78;;;26.90;60.60;;;;;;9177140;19;20015;-71
2022/06/11 09:22:28;;;;;;;15.17;2.67;;;26.90;60.40;;;;;;9177804;19;20026;-71
2022/06/11 09:25:47;;;;;;;17.52;2.95;;;27.00;60.20;;;;;;9178244;19;20019;-70
2022/06/11 09:29:05;;;;;;;18.55;3.08;;;27.10;59.70;;;;;;9179104;19;20086;-71
2022/06/11 09:32:16;;;;;;;13.98;3.45;;;27.20;59.60;;;;;;9179159;19;20014;-70
2022/06/11 09:35:23;;;;;;;13.43;3.05;;;27.20;59.50;;;;;;9180640;19;20035;-71
2022/06/11 09:38:41;;;;;;;21.17;3.63;;;27.30;59.50;;;;;;9180344;19;20011;-71
2022/06/11 09:41:53;;;;;;;14.55;3.08;;;27.30;58.90;;;;;;9186442;19;20491;-71
2022/06/11 09:45:06;;;;;;;18.20;3.22;;;27.40;59.00;;;;;;9188072;19;20021;-71
2022/06/11 09:48:25;;;;;;;18.88;3.00;;;27.40;58.70;;;;;;9186853;19;20376;-72
2022/06/11 09:51:38;;;;;;;15.38;3.47;;;27.40;58.30;;;;;;9187895;19;20033;-70
2022/06/11 09:54:54;;;;;;;17.70;4.07;;;27.50;58.30;;;;;;9189324;19;20467;-69
2022/06/11 09:58:08;;;;;;;15.90;3.75;;;27.50;58.20;;;;;;9188133;19;20026;-69
2022/06/11 10:01:47;;;;;;;13.57;3.65;;;27.60;58.30;;;;;;9186147;19;20018;-70
2022/06/11 10:04:53;;;;;;;17.60;4.00;;;27.60;58.10;;;;;;9187356;19;20495;-70
2022/06/11 10:08:19;;;;;;;14.88;3.03;;;27.70;58.20;;;;;;9185589;19;20384;-70
2022/06/11 10:11:32;;;;;;;14.75;3.70;;;27.70;57.70;;;;;;9188606;19;20018;-70
2022/06/11 10:14:43;;;;;;;14.43;2.85;;;27.70;57.60;;;;;;9186790;19;20010;-71
2022/06/11 10:17:56;;;;;;;14.25;3.53;;;27.80;57.50;;;;;;9183162;19;20021;-71
2022/06/11 10:21:07;;;;;;;15.82;3.28;;;27.80;57.30;;;;;;9186090;19;20019;-71
2022/06/11 10:24:18;;;;;;;18.83;2.97;;;27.80;57.30;;;;;;9185946;19;20373;-70
2022/06/11 10:27:27;;;;;;;13.60;2.55;;;27.80;57.10;;;;;;9187553;19;20021;-72
2022/06/11 10:30:42;;;;;;;26.40;3.83;;;27.70;56.90;;;;;;9186292;19;20484;-70
2022/06/11 10:33:52;;;;;;;16.60;3.90;;;27.70;56.80;;;;;;9187498;19;20030;-71
2022/06/11 10:37:02;;;;;;;17.77;4.30;;;27.60;56.70;;;;;;9187707;19;20018;-71
2022/06/11 10:40:18;;;;;;;18.23;3.72;;;27.60;56.70;;;;;;9187072;19;20055;-70
2022/06/11 10:43:35;;;;;;;23.20;4.55;;;27.50;56.50;;;;;;9184386;19;20022;-71
2022/06/11 10:46:41;;;;;;;15.15;2.67;;;27.50;56.50;;;;;;9184248;19;20014;-72
2022/06/11 10:49:47;;;;;;;14.35;3.47;;;27.40;56.70;;;;;;9184521;19;20018;-71
2022/06/11 10:52:58;;;;;;;15.57;3.20;;;27.40;56.60;;;;;;9179656;19;20029;-70
2022/06/11 10:56:06;;;;;;;16.85;3.13;;;27.50;56.40;;;;;;9184941;19;20421;-72
2022/06/11 10:59:23;;;;;;;14.02;3.60;;;27.50;56.40;;;;;;9186267;19;20011;-71
2022/06/11 11:02:32;;;;;;;16.90;3.80;;;27.60;56.10;;;;;;9182508;19;20007;-75
2022/06/11 11:05:49;;;;;;;16.67;2.75;;;27.60;56.20;;;;;;9185701;19;20048;-72
2022/06/11 11:08:58;;;;;;;18.00;3.53;;;27.70;55.90;;;;;;9181817;19;20034;-71
2022/06/11 11:12:07;;;;;;;14.88;3.20;;;27.70;55.90;;;;;;9183504;19;20025;-72
2022/06/11 11:15:20;;;;;;;16.10;3.15;;;27.90;55.90;;;;;;9182923;19;20014;-76
2022/06/11 11:18:29;;;;;;;17.65;3.72;;;27.90;55.50;;;;;;9174605;19;20014;-74
2022/06/11 11:21:36;;;;;;;19.52;3.60;;;28.00;55.60;;;;;;9175760;19;20476;-72
2022/06/11 11:24:45;;;;;;;12.90;2.60;;;28.10;55.50;;;;;;9177250;19;20048;-73
2022/06/11 11:27:51;;;;;;;19.25;3.40;;;28.20;55.30;;;;;;9177350;19;20015;-70
2022/06/11 11:31:05;;;;;;;20.02;3.33;;;28.30;55.20;;;;;;9178057;19;20015;-70
2022/06/11 11:34:16;;;;;;;14.43;2.53;;;28.40;54.80;;;;;;9173750;19;20621;-70
2022/06/11 11:37:27;;;;;;;16.02;2.60;;;28.40;54.50;;;;;;9175487;19;20014;-72
2022/06/11 11:40:34;;;;;;;9.18;2.25;;;28.50;54.40;;;;;;9172663;19;20382;-69
2022/06/11 11:43:43;;;;;;;19.42;2.70;;;28.50;54.20;;;;;;9176294;19;20022;-69
2022/06/11 11:46:55;;;;;;;13.65;3.10;;;28.60;54.10;;;;;;9175658;19;20026;-71
2022/06/11 11:50:09;;;;;;;9.43;2.67;;;28.60;53.50;;;;;;9176954;19;20026;-72
2022/06/11 11:53:23;;;;;;;9.18;2.40;;;28.60;53.50;;;;;;9174387;19;20021;-72
2022/06/11 11:56:32;;;;;;;11.35;2.50;;;28.60;53.40;;;;;;9175115;19;20053;-78
2022/06/11 11:59:43;;;;;;;16.42;2.85;;;28.70;53.50;;;;;;9178712;19;20756;-76
2022/06/11 12:02:57;;;;;;;9.02;1.98;;;28.70;53.20;;;;;;9175596;19;20018;-70
2022/06/11 12:06:02;;;;;;;18.52;3.00;;;28.70;53.60;;;;;;9174265;19;20015;-70
2022/06/11 12:09:26;;;;;;;14.70;2.75;;;28.60;53.10;;;;;;9177734;19;20017;-69
2022/06/11 12:12:33;;;;;;;12.23;2.42;;;28.60;52.80;;;;;;9173461;19;20014;-69
2022/06/11 12:15:38;;;;;;;13.85;2.38;;;28.50;52.90;;;;;;9171261;19;20022;-69
2022/06/11 12:18:53;;;;;;;14.52;2.60;;;28.50;52.90;;;;;;9168134;19;20014;-70
2022/06/11 12:22:04;;;;;;;13.82;2.53;;;28.40;52.50;;;;;;9171744;19;20015;-70
2022/06/11 12:25:22;;;;;;;21.23;3.00;;;28.30;52.60;;;;;;9172129;19;20029;-68
2022/06/11 12:28:32;;;;;;;14.90;3.42;;;28.40;52.70;;;;;;9171926;19;20734;-69
2022/06/11 12:31:37;;;;;;;14.95;2.75;;;28.30;52.90;;;;;;9174667;19;20018;-70
2022/06/11 12:34:45;;;;;;;11.57;2.20;;;28.30;52.90;;;;;;9176321;19;20377;-70
2022/06/11 12:37:56;;;;;;;10.68;2.53;;;28.40;52.60;;;;;;9177530;19;20014;-70
2022/06/11 12:41:29;;;;;;;10.63;2.30;;;28.50;52.60;;;;;;9179521;19;20026;-69
2022/06/11 12:44:53;;;;;;;17.05;2.92;;;28.50;52.30;;;;;;9177248;19;20014;-69
2022/06/11 12:48:20;;;;;;;13.10;2.50;;;28.60;52.30;;;;;;9180313;19;20011;-69
2022/06/11 12:51:35;;;;;;;14.90;2.42;;;28.60;52.10;;;;;;9180566;19;20014;-72
2022/06/11 12:54:53;;;;;;;11.68;2.75;;;28.60;52.20;;;;;;9182999;19;20014;-71
2022/06/11 12:58:04;;;;;;;15.80;2.70;;;28.60;52.20;;;;;;9180249;19;20019;-69
2022/06/11 13:01:16;;;;;;;18.83;2.80;;;28.50;52.10;;;;;;9181891;19;20011;-70
2022/06/11 13:04:41;;;;;;;13.38;2.75;;;28.50;52.10;;;;;;9177249;19;20019;-71
2022/06/11 13:07:57;;;;;;;16.95;2.60;;;28.50;52.00;;;;;;9177594;19;20026;-67
2022/06/11 13:11:06;;;;;;;12.35;2.55;;;28.50;52.00;;;;;;9176229;19;20440;-72
2022/06/11 13:14:38;;;;;;;10.73;2.50;;;28.40;51.90;;;;;;9181188;19;20405;-69
2022/06/11 13:17:57;;;;;;;18.17;2.35;;;28.30;51.70;;;;;;9187109;19;20028;-67
2022/06/11 13:21:10;;;;;;;17.90;2.97;;;28.20;51.70;;;;;;9190853;19;20014;-67
2022/06/11 13:24:26;;;;;;;18.08;3.80;;;28.00;51.80;;;;;;9185967;19;20017;-68
2022/06/11 13:27:42;;;;;;;13.38;2.42;;;28.00;51.90;;;;;;9190122;19;20018;-68
2022/06/11 13:30:53;;;;;;;9.82;2.70;;;27.80;52.00;;;;;;9189220;19;20010;-68
2022/06/11 13:34:10;;;;;;;10.45;2.55;;;27.80;52.10;;;;;;9187931;19;20023;-68
2022/06/11 13:37:38;;;;;;;11.10;2.55;;;27.70;52.10;;;;;;9186316;19;20024;-67
2022/06/11 13:40:51;;;;;;;10.25;2.45;;;27.50;52.00;;;;;;9187993;19;20108;-68
2022/06/11 13:44:10;;;;;;;40.13;3.95;;;27.40;52.10;;;;;;9189174;19;20843;-70
2022/06/11 13:47:31;;;;;;;14.95;3.00;;;27.40;52.20;;;;;;9189342;19;20423;-70
2022/06/11 13:50:59;;;;;;;14.15;3.08;;;27.30;52.10;;;;;;9180918;19;20021;-73
2022/06/11 13:58:02;;;;;;;11.27;2.35;;;27.20;52.30;;;;;;9180136;19;20049;-73
2022/06/11 14:01:25;;;;;;;10.20;2.50;;;27.10;52.20;;;;;;9182100;19;20376;-72
2022/06/11 14:04:36;;;;;;;10.18;2.08;;;27.10;52.20;;;;;;9180320;19;20025;-73
2022/06/11 14:07:41;;;;;;;14.65;3.58;;;27.00;52.90;;;;;;9178558;19;20087;-72
2022/06/11 14:11:16;;;;;;;12.52;2.55;;;27.00;52.30;;;;;;9174929;19;20101;-73
2022/06/11 14:14:40;;;;;;;15.30;2.30;;;27.00;52.40;;;;;;9176941;19;20046;-73
2022/06/11 14:17:47;;;;;;;12.13;2.58;;;27.00;52.40;;;;;;9176034;19;20018;-73
2022/06/11 14:20:55;;;;;;;19.02;3.15;;;26.90;52.50;;;;;;9175955;19;20078;-74
2022/06/11 14:24:00;;;;;;;12.95;2.10;;;26.90;52.60;;;;;;9175583;19;20019;-74
2022/06/11 14:27:26;;;;;;;13.40;2.45;;;27.00;52.60;;;;;;9179050;19;20376;-75
2022/06/11 14:30:33;;;;;;;7.45;2.13;;;27.00;53.10;;;;;;9178884;19;20007;-75
2022/06/11 14:33:42;;;;;;;7.70;2.08;;;27.00;52.30;;;;;;9179199;19;20022;-74
2022/06/11 14:37:03;;;;;;;12.57;2.45;;;27.00;52.30;;;;;;9177540;19;20018;-72
2022/06/11 14:40:22;;;;;;;9.10;2.40;;;27.00;52.30;;;;;;9177399;19;20022;-71
2022/06/11 14:43:27;;;;;;;7.00;2.10;;;26.90;51.90;;;;;;9177023;19;20029;-71
2022/06/11 14:46:55;;;;;;;12.32;2.17;;;26.90;52.10;;;;;;9174803;19;20626;-73
2022/06/11 14:50:00;;;;;;;11.18;2.70;;;26.90;51.80;;;;;;9179138;19;20007;-77
2022/06/11 14:53:15;;;;;;;6.65;1.90;;;27.00;52.20;;;;;;9177558;19;20018;-78
2022/06/11 14:56:39;;;;;;;9.50;2.30;;;27.00;51.90;;;;;;9175381;19;20495;-72
2022/06/11 15:00:19;;;;;;;10.67;2.40;;;27.00;52.40;;;;;;9173796;19;20014;-72
2022/06/11 15:03:59;;;;;;;16.50;2.30;;;27.00;51.80;;;;;;9168583;19;20122;-71
2022/06/11 15:07:18;;;;;;;8.13;2.17;;;27.00;51.80;;;;;;9175204;19;20014;-70
2022/06/11 15:10:29;;;;;;;14.73;3.03;;;27.10;51.80;;;;;;9171986;19;20019;-71
2022/06/11 15:14:01;;;;;;;10.23;2.10;;;27.10;51.90;;;;;;9174356;19;20018;-73
2022/06/11 15:17:19;;;;;;;11.77;1.90;;;27.10;51.60;;;;;;9169662;19;20029;-72
2022/06/11 15:20:32;;;;;;;9.13;2.15;;;27.20;51.60;;;;;;9172834;19;20025;-72
2022/06/11 15:23:43;;;;;;;10.88;2.47;;;27.20;51.60;;;;;;9167422;19;20023;-73
2022/06/11 15:26:53;;;;;;;16.13;2.40;;;27.20;52.30;;;;;;9176461;19;20966;-72
2022/06/11 15:30:13;;;;;;;11.88;2.42;;;27.20;51.60;;;;;;9171265;19;20027;-73
2022/06/11 15:33:31;;;;;;;9.73;1.70;;;27.20;51.60;;;;;;9171273;19;20014;-73
2022/06/11 15:36:57;;;;;;;11.40;3.15;;;27.20;51.50;;;;;;9171460;19;20014;-74
2022/06/11 15:40:20;;;;;;;9.70;2.35;;;27.10;51.30;;;;;;9170361;19;20037;-73
2022/06/11 15:43:30;;;;;;;13.45;1.90;;;27.20;51.30;;;;;;9170685;19;20026;-71
2022/06/11 15:46:38;;;;;;;12.48;2.58;;;27.10;51.30;;;;;;9173327;19;20014;-72
2022/06/11 15:49:45;;;;;;;9.90;1.92;;;27.10;51.20;;;;;;9173620;19;20013;-73
2022/06/11 15:52:58;;;;;;;12.82;3.10;;;27.10;51.30;;;;;;9173534;19;20452;-73
2022/06/11 15:56:18;;;;;;;12.45;2.35;;;27.00;51.20;;;;;;9177492;19;20077;-72
2022/06/11 15:59:27;;;;;;;12.18;2.58;;;27.00;51.10;;;;;;9174949;19;20025;-71
2022/06/11 16:02:32;;;;;;;7.40;2.10;;;27.00;51.10;;;;;;9173032;19;20030;-71
2022/06/11 16:05:42;;;;;;;8.93;2.28;;;26.90;51.10;;;;;;9169195;19;20026;-73
2022/06/11 16:08:51;;;;;;;10.10;2.05;;;26.90;51.00;;;;;;9174546;19;20014;-73
2022/06/11 16:12:03;;;;;;;9.77;1.90;;;26.90;50.80;;;;;;9176703;19;20014;-73
2022/06/11 16:15:16;;;;;;;11.57;1.80;;;26.90;50.50;;;;;;9176255;19;20019;-74
2022/06/11 16:18:30;;;;;;;7.82;1.80;;;26.90;50.60;;;;;;9174657;19;20374;-74
2022/06/11 16:21:35;;;;;;;6.45;2.17;;;26.80;50.30;;;;;;9175893;19;20038;-73
2022/06/11 16:24:46;;;;;;;9.25;2.40;;;26.80;50.40;;;;;;9178425;19;20070;-71
2022/06/11 16:27:54;;;;;;;13.23;2.25;;;26.70;50.10;;;;;;9177319;19;20488;-70